EGXW - Waddington
Distance from station: E 5mi, 14km
Updated: 10/19/2017 7:50pm
Partly Cloudy
Partly Cloudy
 Wind from S
Wind: S 14 mph , 22 km/h
Temperature: 54°F , 12°C
Dew Point: 48°F , 9°C
Humidity: 82%
Barometer: 29.38 inHg , 995 hPa
Clouds: Partly Cloudy
Visibility: 6 miles , 10 km
Cloud details: Partly Cloudy 2400 ft
Partly Cloudy 5000 ft
2017/10/20 02:50 EGXW 200250Z 18012KT 9999 SCT024 SCT050 12/09 Q0995 WHT